Airfield :
LOGIN :

Register | Disclaimer

   EN    FR    IT 

 










Legend :    VFR   Marginal VFR   IFR   Intensive IFR   Very Intensive IFR
Visi :
Ceiling :
>= 8 km
>= 3000ft
5 to 8 km
1000 to 3000 ft
1500m to 5 km
500 to 1000 ft
800 to 1500m
200 to 500 ft
< 800m
< 200 ft
Symbols :   Thunderstorms  Fog  Heavy snow  Heavy precipitations  Wind > 20 kt
SIGMETs :     Misc.  Thunderstorms  Icing  Turbulence  Mountain Waves  Volcanic Ashes







- Airport Elevation : 1345 ft
- IATA code : FRZ


ETHF - Fritzlar

CURRENT METAR :
  • 251500Z 30008KT 9999 FEW026 BKN040 19/11 Q1023 BLU FCST CANCEL

EXPIRED METARs :
  • 251420Z 35006KT 9999 SCT023 BKN035 18/11 Q1023 BLU BLU
  • 251320Z 33009KT 9999 FEW023 BKN033 18/11 Q1023 BLU BLU
  • 251220Z 34008KT 9999 SCT024 BKN037 18/11 Q1023 BLU BLU TEMPO WHT

TAF AMD TAF ETHF
Valid from the 25 at 14:00 until the 25 at 23:00 UTC


251426Z 2514/2523 32006KT 9999 NSW SCT025 BKN035 CANCEL 1500
No reported NOTAMs for that airfield.



MET'MAP, your aeronautical weather chart ! - Copyright ORBIFLY December 2007 - Disclaimer

ORBIFLY MET'MAP TEAM :

Programming & Development : Alexandra Zaïnal
Concept & Development : Baudouin d'Aumeries
Co-Development & Prog : Marc-Olivier Méhu
Technical & hardware support : Manuel Goepfert

Contact : metmap@orbifly.com




SOURCES & CREDITS :

   NOAA